Tiempo atmosférico en la estación meteorológica de Castell, Platja d'Aro, Girona (14 m.)

Fecha
DESCASC
Temp. máxima en grados centígrados (hora)
DESCASC
Temp. mínima en grados centígrados (hora)
DESCASC
Temp. media en grados centígrados
DESCASC
Racha de viento máxima en m/sg (hora)
DESCASC
Velocidad máxima media en intervalos de 10 minutos(hora)
DESCASC
Precipitaciones diarias en mm
DESCASC
Precipitaciones de 00:00 a 06:00 en mm
DESCASC
Precipitaciones de 06:00 a 12:00 en mm
DESCASC
Precipitaciones de 12:00 a 18:00 en mm
DESCASC
Precipitaciones de 18:00 a 24:00 en mm
DESCASC
17-09-2017 23.9 (14:50) 8.8 (05:20) 16.3 12.78 (15:40) 6.11 (15:40) 0 0 0 0 0
16-09-2017 21 (15:20) 8.8 (07:10) 14.9 12.78 (19:50) 5 (19:50) 1 0 0 0 1
15-09-2017 18.8 (00:00) 12.7 (20:50) 15.7 12.78 (00:40) 6.11 (00:40) 10 8 0 0.8 1.2
14-09-2017 25.1 (14:00) 16.6 (00:00) 20.9 14.44 (20:00) 6.94 (20:10) 0 0 0 0 0
13-09-2017 27.1 (16:20) 15.3 (00:00) 21.2 10.83 (17:00) 5 (18:00) 0 0 0 0 0
12-09-2017 23.3 (14:00) 18.3 (00:00) 20.8 5.28 (09:40) 2.78 (10:20) 0.2 0 0.2 0 0
11-09-2017 24.3 (15:30) 13.9 (00:00) 19.1 7.22 (12:10) 3.89 (12:00) 0 0 0 0 0
10-09-2017 23.8 (14:40) 12 (00:00) 17.9 11.11 (13:00) 5 (12:10) 0.6 0.6 0 0 0
09-09-2017 21.6 (12:30) 14.3 (00:00) 18 13.89 (13:50) 6.11 (13:50) 10.8 0 0.6 7.8 2.4
08-09-2017 24.5 (15:30) 18.2 (00:00) 21.4 8.06 (03:00) 3.89 (03:50) 0 0 0 0 0
07-09-2017 25.8 (13:00) 16.9 (00:00) 21.3 8.89 (10:00) 3.89 (16:20) 7.2 7.2 0 0 0
06-09-2017 25.9 (10:50) 20.5 (00:00) 23.2 7.22 (09:10) 3.33 (09:10) 4.4 0 0 4.2 0.2
05-09-2017 29.6 (14:10) 16.4 (00:00) 23 10.28 (16:10) 5.28 (15:40) 0 0 0 0 0
04-09-2017 26.1 (16:40) 17.8 (00:00) 21.9 7.78 (13:10) 4.17 (13:00) 0.2 0 0.2 0 0
03-09-2017 24.3 (12:40) 15.9 (00:00) 20.1 6.11 (12:50) 3.33 (13:10) 0 0 0 0 0
02-09-2017 24.6 (13:40) 17.1 (00:00) 20.9 8.33 (05:20) 3.89 (12:50) 0.4 0.4 0 0 0
01-09-2017 25 (13:00) 16.1 (00:00) 20.6 9.72 (09:20) 4.17 (09:20) 0 0 0 0 0
31-08-2017 23.1 (04:50) 17 (00:00) 20.1 8.06 (05:30) 3.33 (05:00) 5.8 0 1.6 4.2 0
30-08-2017 30.7 (14:40) 20 (00:00) 25.4 11.11 (15:00) 5.56 (15:00) 0 0 0 0 0
29-08-2017 33.1 (16:10) 21 (00:00) 27 11.11 (12:40) 6.67 (12:40) 0 0 0 0 0
28-08-2017 28.3 (10:40) 20.3 (00:00) 24.3 6.94 (14:40) 3.61 (14:40) 0 0 0 0 0
27-08-2017 26.9 (13:40) 20.2 (00:00) 23.6 7.5 (12:10) 3.89 (14:00) 0 0 0 0 0
26-08-2017 29 (13:40) 21.8 (00:00) 25.4 6.94 (16:10) 3.61 (12:50) 0 0 0 0 0
25-08-2017 30.1 (14:20) 19.4 (00:00) 24.8 7.5 (11:20) 4.72 (15:20) 0 0 0 0 0
24-08-2017 29.9 (14:20) 19.1 (00:00) 24.5 8.06 (12:50) 4.44 (15:00) 0.2 0.2 0 0 0
23-08-2017 28.7 (15:50) 18.8 (00:00) 23.8 10.56 (18:30) 6.67 (16:00) 0 0 0 0 0
22-08-2017 28.8 (12:40) 17.1 (00:00) 22.9 9.72 (13:10) 5.56 (13:30) 0 0 0 0 0

Gráficas

Temp. máximas Temp. mínimas Temp. medias Precipitaciones Rachas de viento máximas Velocidades máximas media en intervalos de 10 minutos

Datos horarios

Fecha y hora oficial Temperatura (ºC) Velocidad del viento (km/h) Dirección del viento Racha (km/h) Dirección de racha Precipitación (mm) Presión (hPa) Tendencia (hPa) Humedad (%)
2017-09-20 23:00:00 16.6 4 Oeste 9 Oeste 0 -- -- 81
2017-09-20 22:00:00 18.5 3 Oeste 14 Sur 0 -- -- 75
2017-09-20 21:00:00 19.7 4 Oeste 14 Sur 0 -- -- 70
2017-09-20 20:00:00 20.2 8 Sur 19 Sur 0 -- -- 66
2017-09-20 19:00:00 21.2 8 Sur 25 Sur 0 -- -- 62
2017-09-20 18:00:00 21.6 9 Sur 26 Sur 0 -- -- 62
2017-09-20 17:00:00 22.2 15 Sur 30 Sur 0 -- -- 54
2017-09-20 16:00:00 22.8 12 Sur 22 Sur 0 -- -- 51
2017-09-20 15:00:00 22.7 12 Sudeste 23 Sur 0 -- -- 51
2017-09-20 14:00:00 22.9 9 Sudeste 22 Sudeste 0 -- -- 46
2017-09-20 13:00:00 22.8 8 Sudeste 21 Este 0 -- -- 43
2017-09-20 12:00:00 22.7 4 Sudeste 16 Sudeste 0 -- -- 40
2017-09-20 11:00:00 20.3 5 Noroeste 15 Noroeste 0 -- -- 45
2017-09-20 10:00:00 17.9 7 Oeste 14 Oeste 0 -- -- 50
2017-09-20 09:00:00 15.4 5 Oeste 25 Noroeste 0 -- -- 57
2017-09-20 08:00:00 15.3 6 Oeste 36 Noroeste 0 -- -- 56
2017-09-20 07:00:00 15.9 18 Noroeste 39 Noroeste 0 -- -- 53
2017-09-20 06:00:00 15.9 15 Noroeste 40 Noroeste 0 -- -- 53
2017-09-20 05:00:00 16.2 14 Norte 36 Norte 0 -- -- 51
2017-09-20 04:00:00 16.5 15 Norte 40 Norte 0 -- -- 51
2017-09-20 03:00:00 16.9 12 Norte 38 Norte 0 -- -- 51
2017-09-20 02:00:00 17.4 17 Noroeste 38 Norte 0 -- -- 51
2017-09-20 01:00:00 18.1 12 Norte 28 Norte 0 -- -- 47
2017-09-20 00:00:00 16.9 4 Oeste 9 Oeste 0 -- -- 78
2017-09-19 23:00:00 17.2 3 Oeste 8 Oeste 0 -- -- 76
2017-09-19 22:00:00 17.3 2 Sudoeste 7 Oeste 0 -- -- 74
2017-09-19 21:00:00 17.7 3 Oeste 5 Oeste 0 -- -- 70
2017-09-19 20:00:00 19.6 0 Calma 10 Sudoeste 0 -- -- 65
2017-09-19 19:00:00 20.6 4 Sudoeste 17 Sudoeste 0 -- -- 58
2017-09-19 18:00:00 21.7 9 Sur 21 Sur 0 -- -- 55
2017-09-19 17:00:00 22.3 9 Sudoeste 20 Sur 0 -- -- 53
2017-09-19 16:00:00 22.1 7 Sudoeste 20 Sudoeste 0 -- -- 55
2017-09-19 15:00:00 22.8 6 Sudoeste 20 Nordeste 0 -- -- 50
2017-09-19 14:00:00 21.6 7 Norte 17 Norte 0 -- -- 46
2017-09-19 13:00:00 21.2 9 Norte 33 Noroeste 0 -- -- 49
2017-09-19 12:00:00 20 12 Norte 30 Noroeste 0 -- -- 47
2017-09-19 11:00:00 18.1 14 Norte 35 Norte 0 -- -- 54
2017-09-19 10:00:00 16.5 15 Norte 39 Norte 0 -- -- 58
2017-09-19 09:00:00 15.7 14 Norte 41 Norte 0 -- -- 61
2017-09-19 08:00:00 15.4 15 Norte 36 Norte 0 -- -- 64
2017-09-19 07:00:00 15.5 14 Norte 34 Norte 0 -- -- 69
2017-09-19 06:00:00 14.4 10 Noroeste 30 Norte 0 -- -- 77
2017-09-19 05:00:00 12.8 4 Sudoeste 10 Oeste 0 -- -- 92
2017-09-19 04:00:00 13.5 3 Oeste 9 Sudoeste 0 -- -- 93
2017-09-19 03:00:00 14.3 4 Oeste 12 Oeste 0 -- -- 92
2017-09-19 02:00:00 14.4 3 Oeste 14 Oeste 0 -- -- 93
2017-09-19 01:00:00 14.6 7 Oeste 15 Oeste 0 -- -- 92
2017-09-19 00:00:00 14.6 4 Oeste 9 Oeste 0 -- -- 93
2017-09-18 23:00:00 15.3 2 Oeste 6 Oeste 0 -- -- 91
2017-09-18 22:00:00 16 0 Calma 6 Oeste 0.8 -- -- 89
2017-09-18 21:00:00 16.9 0 Calma 10 Este 0.2 -- -- 81
2017-09-18 20:00:00 17.7 3 Nordeste 13 Nordeste 0 -- -- 72
2017-09-18 19:00:00 18.2 8 Este 19 Este 0 -- -- 69
2017-09-18 18:00:00 18.8 9 Este 18 Este 0 -- -- 68
2017-09-18 17:00:00 19.1 9 Nordeste 22 Nordeste 0 -- -- 65
2017-09-18 16:00:00 19.2 8 Nordeste 25 Nordeste 0 -- -- 66
2017-09-18 15:00:00 18.8 10 Nordeste 25 Nordeste 0 -- -- 72
2017-09-18 14:00:00 16.5 12 Nordeste 19 Nordeste 0.6 -- -- 84
2017-09-18 13:00:00 15.4 3 Noroeste 20 Nordeste 2.6 -- -- 85
2017-09-18 12:00:00 17.3 10 Norte 22 Noroeste 0 -- -- 65
2017-09-18 11:00:00 17.4 5 Norte 18 Este 0 -- -- 65
2017-09-18 10:00:00 16.1 6 Noroeste 10 Oeste 0 -- -- 73
2017-09-18 09:00:00 14.8 4 Oeste 14 Oeste 0 -- -- 78
2017-09-18 08:00:00 14.3 4 Oeste 12 Oeste 0 -- -- 78
2017-09-18 07:00:00 14.2 4 Oeste 19 Oeste 0 -- -- 79
2017-09-18 06:00:00 13.7 4 Oeste 12 Oeste 0 -- -- 81
2017-09-18 05:00:00 14.2 4 Oeste 10 Oeste 0 -- -- 81
2017-09-18 04:00:00 14.2 4 Oeste 10 Oeste 0 -- -- 83
2017-09-18 03:00:00 15 3 Sudoeste 9 Oeste 0 -- -- 80
2017-09-18 02:00:00 16.2 2 Sudoeste 7 Oeste 0 -- -- 75
2017-09-18 01:00:00 17.9 4 Norte 12 Noroeste 0 -- -- 67
2017-09-18 00:00:00 18.2 3 Norte 13 Norte 0 -- -- 64
2017-09-17 23:00:00 18.4 5 Nordeste 20 Norte 0 -- -- 66
2017-09-17 22:00:00 18.4 6 Norte 22 Norte 0 -- -- 68
2017-09-17 21:00:00 19 6 Norte 19 Noroeste 0 -- -- 70
2017-09-17 20:00:00 20.4 4 Noroeste 17 Oeste 0 -- -- 66
2017-09-17 19:00:00 21.6 8 Sudoeste 32 Sudoeste 0 -- -- 59
2017-09-17 18:00:00 22.3 16 Sudoeste 35 Sudoeste 0 -- -- 54
2017-09-17 17:00:00 23.4 18 Sudoeste 36 Sur 0 -- -- 48
2017-09-17 16:00:00 23.7 15 Sudoeste 46 Sur 0 -- -- 46
2017-09-17 15:00:00 23.8 16 Sur 35 Sudoeste 0 -- -- 44
2017-09-17 14:00:00 23.3 9 Sudoeste 25 Sudoeste 0 -- -- 42
2017-09-17 13:00:00 21.6 8 Sudeste 19 Sudeste 0 -- -- 45
2017-09-17 12:00:00 20.8 3 Norte 12 Oeste 0 -- -- 47
2017-09-17 11:00:00 18.3 7 Oeste 16 Oeste 0 -- -- 55
2017-09-17 10:00:00 15.2 4 Oeste 15 Oeste 0 -- -- 75
2017-09-17 09:00:00 11.1 5 Oeste 14 Oeste 0 -- -- 90
2017-09-17 08:00:00 9.4 5 Oeste 12 Oeste 0 -- -- 92
2017-09-17 07:00:00 9.1 6 Sudoeste 15 Sudoeste 0 -- -- 93
2017-09-17 06:00:00 8.9 5 Oeste 12 Oeste 0 -- -- 94
2017-09-17 05:00:00 9 4 Oeste 11 Sudoeste 0 -- -- 92
2017-09-17 04:00:00 9.7 5 Oeste 11 Oeste 0 -- -- 90
2017-09-17 03:00:00 10.2 4 Oeste 12 Sudoeste 0 -- -- 90
2017-09-17 02:00:00 10.7 4 Oeste 9 Oeste 0 -- -- 89
2017-09-17 01:00:00 11.6 2 Oeste 10 Oeste 0 -- -- 87
2017-09-17 00:00:00 12.2 4 Sudoeste 8 Sudoeste 0 -- -- 86
2017-09-16 23:00:00 13.7 8 Sudoeste 31 Noroeste 0 -- -- 79
2017-09-16 22:00:00 14 4 Norte 9 Nordeste 0 -- -- 82
2017-09-16 21:00:00 13.8 5 Sur 31 Norte 1 -- -- 79
2017-09-16 20:00:00 16.4 15 Norte 46 Noroeste 0 -- -- 58
2017-09-16 19:00:00 18.9 7 Este 24 Este 0 -- -- 63
2017-09-16 18:00:00 20.2 9 Sudeste 24 Sudeste 0 -- -- 60
2017-09-16 17:00:00 20.4 13 Sur 23 Sudeste 0 -- -- 56
2017-09-16 16:00:00 20.7 11 Sudeste 24 Sudeste 0 -- -- 54
2017-09-16 15:00:00 20.9 5 Sur 15 Sur 0 -- -- 55
2017-09-16 14:00:00 19.3 7 Sudeste 29 Este 0 -- -- 56
2017-09-16 13:00:00 19.4 3 Este 15 Nordeste 0 -- -- 53
2017-09-16 12:00:00 18.9 4 Sudeste 14 Oeste 0 -- -- 53
2017-09-16 11:00:00 16.7 6 Oeste 18 Oeste 0 -- -- 69
2017-09-16 10:00:00 14 9 Oeste 19 Oeste 0 -- -- 81
2017-09-16 09:00:00 10.6 3 Oeste 12 Oeste 0 -- -- 96
2017-09-16 08:00:00 9.1 5 Oeste 12 Oeste 0 -- -- 96
2017-09-16 07:00:00 8.9 5 Oeste 12 Oeste 0 -- -- 96
2017-09-16 06:00:00 9.2 5 Oeste 10 Sudoeste 0 -- -- 96
2017-09-16 05:00:00 9.7 4 Oeste 14 Oeste 0 -- -- 96
2017-09-16 04:00:00 10.4 9 Oeste 17 Oeste 0 -- -- 96
2017-09-16 03:00:00 10.6 7 Oeste 16 Oeste 0 -- -- 95
2017-09-16 02:00:00 11.2 3 Oeste 10 Oeste 0 -- -- 94
2017-09-16 01:00:00 11.9 3 Oeste 9 Oeste 0 -- -- 94
2017-09-16 00:00:00 12.8 4 Oeste 10 Oeste 0 -- -- 93
2017-09-15 23:00:00 13.1 4 Oeste 13 Noroeste 0 -- -- 93
2017-09-15 22:00:00 12.8 7 Oeste 14 Oeste 0 -- -- 93
2017-09-15 21:00:00 12.8 6 Oeste 14 Oeste 0.2 -- -- 91
2017-09-15 20:00:00 13.1 2 Oeste 6 Sur 0.4 -- -- 88
2017-09-15 19:00:00 14 3 Norte 9 Noroeste 0.6 -- -- 80
2017-09-15 18:00:00 14.4 3 Nordeste 17 Noroeste 0.4 -- -- 78
2017-09-15 17:00:00 15 9 Noroeste 21 Noroeste 0.4 -- -- 71
2017-09-15 16:00:00 15.5 9 Norte 23 Noroeste 0 -- -- 66
2017-09-15 15:00:00 15.8 11 Noroeste 17 Noroeste 0 -- -- 66
2017-09-15 14:00:00 15.1 9 Norte 23 Noroeste 0 -- -- 71
2017-09-15 13:00:00 14.9 10 Norte 28 Nordeste 0 -- -- 71
2017-09-15 12:00:00 14.6 5 Nordeste 26 Nordeste 0 -- -- 72
2017-09-15 11:00:00 14.6 9 Norte 32 Norte 0 -- -- 76
2017-09-15 10:00:00 14.8 11 Norte 34 Norte 0 -- -- 72
2017-09-15 09:00:00 15.1 9 Norte 24 Norte 0 -- -- 71
2017-09-15 08:00:00 14.8 10 Nordeste 22 Norte 0 -- -- 74
2017-09-15 07:00:00 14.5 8 Norte 28 Nordeste 0 -- -- 76
2017-09-15 06:00:00 14.2 10 Norte 32 Norte 0 -- -- 83
2017-09-15 05:00:00 14.1 10 Norte 33 Norte 1 -- -- 83
2017-09-15 04:00:00 14.5 11 Norte 31 Nordeste 4.6 -- -- 82
2017-09-15 03:00:00 15.8 10 Norte 39 Norte 2.4 -- -- 73
2017-09-15 02:00:00 18.5 14 Norte 40 Norte 0 -- -- 51
2017-09-15 01:00:00 18.5 19 Norte 46 Nordeste 0 -- -- 51
2017-09-15 00:00:00 18.8 18 Norte 47 Nordeste 0 -- -- 48
2017-09-14 23:00:00 18.2 21 Norte 50 Norte 0 -- -- 53
2017-09-14 22:00:00 17.4 18 Norte 44 Norte 0 -- -- 61
2017-09-14 21:00:00 18.6 16 Norte 47 Noroeste 0 -- -- 51
2017-09-14 20:00:00 19.2 20 Norte 52 Noroeste 0 -- -- 53
2017-09-14 19:00:00 20.6 19 Norte 37 Norte 0 -- -- 49
2017-09-14 18:00:00 22.9 16 Norte 32 Norte 0 -- -- 44
2017-09-14 17:00:00 24.7 7 Nordeste 19 Nordeste 0 -- -- 46
2017-09-14 16:00:00 24.8 8 Nordeste 25 Noroeste 0 -- -- 45
2017-09-14 15:00:00 24.3 10 Este 29 Nordeste 0 -- -- 61
2017-09-14 14:00:00 25.1 14 Este 25 Este 0 -- -- 62
2017-09-14 13:00:00 24.7 12 Este 25 Este 0 -- -- 63
2017-09-14 12:00:00 23.9 10 Este 21 Este 0 -- -- 70
2017-09-14 11:00:00 24 4 Oeste 19 Noroeste 0 -- -- 68
2017-09-14 10:00:00 21.8 0 Calma 8 Oeste 0 -- -- 80
2017-09-14 09:00:00 19.1 4 Oeste 10 Oeste 0 -- -- 88
2017-09-14 08:00:00 17.3 4 Oeste 8 Oeste 0 -- -- 91
2017-09-14 07:00:00 17 3 Oeste 8 Oeste 0 -- -- 92
2017-09-14 06:00:00 17.2 3 Oeste 8 Oeste 0 -- -- 90
2017-09-14 05:00:00 17.2 3 Sudoeste 8 Sudoeste 0 -- -- 90
2017-09-14 04:00:00 16.9 3 Oeste 6 Sudoeste 0 -- -- 87
2017-09-14 03:00:00 17.4 2 Oeste 6 Sur 0 -- -- 85
2017-09-14 02:00:00 18.1 0 Calma 6 Oeste 0 -- -- 83
2017-09-14 01:00:00 19.3 4 Oeste 9 Sudoeste 0 -- -- 81
2017-09-14 00:00:00 20.5 4 Oeste 8 Oeste 0 -- -- 81
2017-09-13 23:00:00 21.9 4 Oeste 10 Sur 0 -- -- 75
2017-09-13 22:00:00 23.3 5 Sudoeste 26 Sudoeste 0 -- -- 69
2017-09-13 21:00:00 23.5 7 Sur 17 Sudoeste 0 -- -- 70
2017-09-13 20:00:00 24.2 5 Nordeste 24 Oeste 0 -- -- 66
2017-09-13 19:00:00 24.9 9 Oeste 37 Sudoeste 0 -- -- 62
2017-09-13 18:00:00 25.5 18 Sudoeste 39 Sur 0 -- -- 60
2017-09-13 17:00:00 26.6 15 Sudoeste 39 Sur 0 -- -- 55
2017-09-13 16:00:00 26.9 17 Sudoeste 35 Sudoeste 0 -- -- 54
2017-09-13 15:00:00 26.2 15 Sur 33 Sur 0 -- -- 52
2017-09-13 14:00:00 25.6 10 Sur 26 Sudoeste 0 -- -- 64
2017-09-13 13:00:00 25.4 9 Sur 20 Sur 0 -- -- 63
2017-09-13 12:00:00 25.1 6 Este 16 Este 0 -- -- 63
2017-09-13 11:00:00 23.8 3 Nordeste 11 Oeste 0 -- -- 66
2017-09-13 10:00:00 20.8 5 Oeste 12 Oeste 0 -- -- 78
2017-09-13 09:00:00 17.6 6 Oeste 12 Oeste 0 -- -- 88
2017-09-13 08:00:00 15.9 4 Sudoeste 10 Sudoeste 0 -- -- 92
2017-09-13 07:00:00 15.3 4 Oeste 11 Oeste 0 -- -- 91
2017-09-13 06:00:00 15.6 5 Oeste 12 Oeste 0 -- -- 90
2017-09-13 05:00:00 16.2 6 Oeste 11 Oeste 0 -- -- 89
2017-09-13 04:00:00 16.3 3 Oeste 10 Sudoeste 0 -- -- 86
2017-09-13 03:00:00 16.7 4 Oeste 10 Sudoeste 0 -- -- 84
2017-09-13 02:00:00 17.2 4 Oeste 10 Oeste 0 -- -- 81
2017-09-13 01:00:00 18.1 3 Oeste 10 Oeste 0 -- -- 77
2017-09-13 00:00:00 19.2 3 Oeste 8 Oeste 0 -- -- 72
2017-09-12 23:00:00 20.2 3 Oeste 9 Sur 0 -- -- 67
2017-09-12 22:00:00 21.1 4 Sur 13 Sur 0 -- -- 61
2017-09-12 21:00:00 21.1 4 Sur 11 Sudeste 0 -- -- 59
2017-09-12 20:00:00 21.5 2 Sudeste 10 Sur 0 -- -- 57
2017-09-12 19:00:00 21.7 5 Sudeste 11 Este 0 -- -- 55
2017-09-12 18:00:00 22.1 6 Este 13 Este 0 -- -- 55
2017-09-12 17:00:00 22.5 5 Sudeste 17 Sudeste 0 -- -- 55
2017-09-12 16:00:00 22.4 5 Sudeste 19 Sudeste 0 -- -- 54
2017-09-12 15:00:00 23 8 Sudeste 17 Sudeste 0 -- -- 55
2017-09-12 14:00:00 23.3 10 Sur 18 Sudeste 0 -- -- 54
2017-09-12 13:00:00 22.4 2 Norte 13 Oeste 0 -- -- 57
2017-09-12 12:00:00 20.8 3 Este 12 Noroeste 0 -- -- 66
2017-09-12 11:00:00 19.1 7 Oeste 18 Oeste 0 -- -- 73
2017-09-12 10:00:00 18.5 10 Oeste 19 Oeste 0.2 -- -- 70
2017-09-12 09:00:00 18.7 6 Oeste 17 Noroeste 0 -- -- 61
2017-09-12 08:00:00 18.8 5 Oeste 17 Noroeste 0 -- -- 60
2017-09-12 07:00:00 18.5 3 Sudeste 10 Norte 0 -- -- 69
2017-09-12 06:00:00 19.3 6 Noroeste 13 Noroeste 0 -- -- 62
2017-09-12 05:00:00 19.1 4 Sudeste 6 Sur 0 -- -- 59
2017-09-12 04:00:00 19 3 Sudoeste 9 Oeste 0 -- -- 72
2017-09-12 03:00:00 19.7 4 Sudoeste 10 Sudoeste 0 -- -- 62
2017-09-12 02:00:00 19.6 2 Oeste 9 Oeste 0 -- -- 68
2017-09-12 01:00:00 19.5 4 Sudoeste 14 Oeste 0 -- -- 73
2017-09-12 00:00:00 19.7 4 Oeste 10 Oeste 0 -- -- 74
2017-09-11 23:00:00 19.8 3 Oeste 8 Oeste 0 -- -- 75
2017-09-11 22:00:00 20.2 4 Oeste 8 Oeste 0 -- -- 72
2017-09-11 21:00:00 20.9 3 Oeste 5 Oeste 0 -- -- 69
2017-09-11 20:00:00 22.2 3 Sudeste 15 Sudeste 0 -- -- 62
2017-09-11 19:00:00 22.9 11 Sudeste 22 Sudeste 0 -- -- 59
2017-09-11 18:00:00 23.2 12 Sudeste 22 Sudeste 0 -- -- 59
2017-09-11 17:00:00 24 10 Sudeste 22 Sudeste 0 -- -- 59
2017-09-11 16:00:00 24 11 Sudeste 22 Sudeste 0 -- -- 60
2017-09-11 15:00:00 24.1 10 Sudeste 19 Sudeste 0 -- -- 61
2017-09-11 14:00:00 23.9 8 Este 24 Este 0 -- -- 63
2017-09-11 13:00:00 23.3 12 Este 26 Nordeste 0 -- -- 62
2017-09-11 12:00:00 23.5 14 Este 24 Este 0 -- -- 64
2017-09-11 11:00:00 22.5 3 Norte 18 Oeste 0 -- -- 53
2017-09-11 10:00:00 19.7 10 Oeste 19 Oeste 0 -- -- 62
2017-09-11 09:00:00 16.3 7 Oeste 15 Oeste 0 -- -- 80
2017-09-11 08:00:00 13.9 5 Oeste 13 Oeste 0 -- -- 88
2017-09-11 07:00:00 14.3 5 Oeste 12 Sudoeste 0 -- -- 87
2017-09-11 06:00:00 14.7 5 Oeste 15 Sudoeste 0 -- -- 86
2017-09-11 05:00:00 15 6 Oeste 15 Oeste 0 -- -- 85
2017-09-11 04:00:00 14.8 5 Sudoeste 13 Oeste 0 -- -- 85
2017-09-11 03:00:00 14.8 4 Oeste 12 Sudoeste 0 -- -- 85
2017-09-11 02:00:00 14.8 5 Oeste 11 Oeste 0 -- -- 84
2017-09-11 01:00:00 15.2 5 Oeste 13 Oeste 0 -- -- 82
2017-09-11 00:00:00 15.2 5 Sudoeste 13 Sudoeste 0 -- -- 81
2017-09-10 23:00:00 15.5 6 Oeste 15 Sudoeste 0 -- -- 79
2017-09-10 22:00:00 16.6 4 Oeste 11 Oeste 0 -- -- 77
2017-09-10 21:00:00 18.7 0 Calma 10 Sur 0 -- -- 70
2017-09-10 20:00:00 20.7 6 Sur 17 Sur 0 -- -- 60
2017-09-10 19:00:00 21.6 7 Sur 21 Sur 0 -- -- 59
2017-09-10 18:00:00 22.3 10 Sudoeste 26 Sudoeste 0 -- -- 57
2017-09-10 17:00:00 22.9 15 Sur 28 Sur 0 -- -- 51
2017-09-10 16:00:00 22 15 Sur 27 Sudoeste 0 -- -- 53
2017-09-10 15:00:00 23.2 17 Sur 31 Sur 0 -- -- 48
2017-09-10 14:00:00 23.5 5 Sur 29 Norte 0 -- -- 44
2017-09-10 13:00:00 21.7 15 Norte 40 Nordeste 0 -- -- 44
2017-09-10 12:00:00 20.5 16 Norte 39 Norte 0 -- -- 50
2017-09-10 11:00:00 19 13 Norte 31 Noroeste 0 -- -- 53
2017-09-10 10:00:00 17.7 17 Norte 33 Noroeste 0 -- -- 54
2017-09-10 09:00:00 16.4 17 Noroeste 32 Noroeste 0 -- -- 56
2017-09-10 08:00:00 15.4 15 Noroeste 30 Noroeste 0 -- -- 60
2017-09-10 07:00:00 12.1 7 Oeste 14 Oeste 0 -- -- 94
2017-09-10 06:00:00 12.6 5 Oeste 14 Oeste 0 -- -- 95
2017-09-10 05:00:00 13.3 5 Oeste 17 Noroeste 0 -- -- 94
2017-09-10 04:00:00 13.6 8 Oeste 18 Oeste 0 -- -- 93
2017-09-10 03:00:00 14.1 9 Oeste 18 Oeste 0 -- -- 94
2017-09-10 02:00:00 14.3 2 Norte 20 Noroeste 0.2 -- -- 94
2017-09-10 01:00:00 14.5 15 Noroeste 26 Noroeste 0.4 -- -- 92
2017-09-10 00:00:00 14.4 12 Noroeste 23 Noroeste 0 -- -- 91
2017-09-09 23:00:00 14.5 8 Oeste 20 Oeste 0 -- -- 95
2017-09-09 22:00:00 14.6 6 Oeste 23 Oeste 1 -- -- 94
2017-09-09 21:00:00 14.7 8 Oeste 13 Oeste 0 -- -- 93
2017-09-09 20:00:00 15 2 Oeste 8 Norte 0.2 -- -- 91
2017-09-09 19:00:00 14.8 4 Sudoeste 9 Sudoeste 1.2 -- -- 90
2017-09-09 18:00:00 14.7 5 Sur 22 Norte 1 -- -- 91
2017-09-09 17:00:00 14.6 12 Norte 37 Norte 2.2 -- -- 82
2017-09-09 16:00:00 14.5 19 Norte 42 Norte 3 -- -- 83
2017-09-09 15:00:00 15.6 18 Norte 46 Norte 1.4 -- -- 78
2017-09-09 14:00:00 19.7 17 Norte 50 Nordeste 0 -- -- 52
2017-09-09 13:00:00 21.6 8 Nordeste 26 Este 0.2 -- -- 64
2017-09-09 12:00:00 20.2 4 Sur 13 Norte 0.6 -- -- 79
2017-09-09 11:00:00 20.9 4 Sudoeste 8 Sudoeste 0 -- -- 69
2017-09-09 10:00:00 19.8 6 Sudoeste 12 Sudoeste 0 -- -- 83
2017-09-09 09:00:00 18.9 3 Oeste 12 Sudoeste 0 -- -- 85
2017-09-09 08:00:00 18 3 Noroeste 9 Oeste 0 -- -- 89
2017-09-09 07:00:00 17.1 4 Oeste 13 Oeste 0 -- -- 89
2017-09-09 06:00:00 16.7 6 Oeste 14 Oeste 0 -- -- 89
2017-09-09 05:00:00 16.6 4 Oeste 11 Oeste 0 -- -- 90
2017-09-09 04:00:00 16.7 6 Oeste 10 Oeste 0 -- -- 89
2017-09-09 03:00:00 16.9 4 Sudoeste 12 Oeste 0 -- -- 90
2017-09-09 02:00:00 17 4 Oeste 10 Oeste 0 -- -- 89
2017-09-09 01:00:00 17.8 4 Oeste 8 Oeste 0 -- -- 88
2017-09-09 00:00:00 18.6 5 Oeste 9 Oeste 0 -- -- 85
2017-09-08 23:00:00 19.8 3 Oeste 6 Oeste 0 -- -- 80
2017-09-08 22:00:00 21.1 3 Oeste 13 Oeste 0 -- -- 77
2017-09-08 21:00:00 21.8 3 Sudoeste 15 Sur 0 -- -- 73
2017-09-08 20:00:00 22.2 6 Sudoeste 27 Sur 0 -- -- 70
2017-09-08 19:00:00 22.5 10 Sudoeste 25 Sur 0 -- -- 66
2017-09-08 18:00:00 22.9 12 Sudeste 26 Sur 0 -- -- 62
2017-09-08 17:00:00 23.1 9 Sur 21 Sur 0 -- -- 60
2017-09-08 16:00:00 23.4 11 Sudeste 27 Sudeste 0 -- -- 57
2017-09-08 15:00:00 23.8 11 Sudeste 23 Sur 0 -- -- 55
2017-09-08 14:00:00 24 13 Sudeste 24 Sur 0 -- -- 52
2017-09-08 13:00:00 23.6 7 Sur 13 Sur 0 -- -- 50
2017-09-08 12:00:00 22.7 4 Este 7 Noroeste 0 -- -- 51
2017-09-08 11:00:00 21.9 3 Sudoeste 10 Oeste 0 -- -- 52
2017-09-08 10:00:00 19.9 4 Oeste 12 Oeste 0 -- -- 59
2017-09-08 09:00:00 18.6 7 Oeste 14 Oeste 0 -- -- 63
2017-09-08 08:00:00 18.2 5 Oeste 12 Oeste 0 -- -- 66
2017-09-08 07:00:00 18.5 5 Oeste 13 Oeste 0 -- -- 65
2017-09-08 06:00:00 19 4 Oeste 14 Oeste 0 -- -- 61
2017-09-08 05:00:00 19.3 4 Oeste 19 Oeste 0 -- -- 56
2017-09-08 04:00:00 19.9 9 Oeste 27 Norte 0 -- -- 51
2017-09-08 03:00:00 20.3 13 Norte 29 Noroeste 0 -- -- 51
2017-09-08 02:00:00 20.8 5 Norte 12 Noroeste 0 -- -- 56
2017-09-08 01:00:00 20.8 0 Calma 4 Oeste 0 -- -- 82
2017-09-08 00:00:00 21.1 2 Sudoeste 7 Oeste 0 -- -- 80
2017-09-07 23:00:00 21.7 0 Calma 9 Noroeste 0 -- -- 78
2017-09-07 22:00:00 21.7 4 Oeste 8 Oeste 0 -- -- 75
2017-09-07 21:00:00 22.2 3 Oeste 13 Oeste 0 -- -- 73
2017-09-07 20:00:00 22.7 5 Oeste 17 Sudoeste 0 -- -- 69
2017-09-07 19:00:00 23.2 6 Sudoeste 20 Sur 0 -- -- 67
2017-09-07 18:00:00 23.8 10 Sur 26 Sudeste 0 -- -- 64
2017-09-07 17:00:00 24.1 12 Sudeste 27 Sudeste 0 -- -- 59
2017-09-07 16:00:00 24.8 11 Sur 27 Sur 0 -- -- 57
2017-09-07 15:00:00 24.8 11 Sudeste 25 Sur 0 -- -- 54
2017-09-07 14:00:00 24.4 9 Este 23 Sur 0 -- -- 52
2017-09-07 13:00:00 25.8 5 Sudoeste 18 Norte 0 -- -- 48
2017-09-07 12:00:00 23.4 10 Norte 22 Norte 0 -- -- 49
2017-09-07 11:00:00 22.2 9 Norte 30 Noroeste 0 -- -- 51
2017-09-07 10:00:00 19.8 9 Noroeste 32 Noroeste 0 -- -- 58
2017-09-07 09:00:00 17.9 4 Oeste 18 Oeste 0 -- -- 81
2017-09-07 08:00:00 17 5 Oeste 14 Oeste 0 -- -- 88
2017-09-07 07:00:00 17.2 6 Oeste 15 Oeste 0 -- -- 90
2017-09-07 06:00:00 17.4 4 Oeste 13 Oeste 0 -- -- 93
2017-09-07 05:00:00 17.8 3 Oeste 16 Oeste 0 -- -- 91
2017-09-07 04:00:00 18.9 5 Oeste 21 Oeste 7.2 -- -- 90
2017-09-07 03:00:00 19.7 3 Oeste 6 Oeste 0 -- -- 92
2017-09-07 02:00:00 20.2 2 Noroeste 9 Oeste 0 -- -- 93
2017-09-07 01:00:00 20.2 5 Oeste 10 Oeste 0 -- -- 92
2017-09-07 00:00:00 20.5 3 Sudoeste 9 Sudoeste 0 -- -- 93
2017-09-06 23:00:00 20.6 3 Oeste 10 Oeste 0 -- -- 92
2017-09-06 22:00:00 20.7 3 Oeste 12 Oeste 0 -- -- 93
2017-09-06 21:00:00 20.9 8 Oeste 15 Oeste 0 -- -- 92
2017-09-06 20:00:00 21.5 4 Oeste 10 Oeste 0 -- -- 92
2017-09-06 19:00:00 21.8 4 Oeste 11 Oeste 0.2 -- -- 90
2017-09-06 18:00:00 22.2 2 Sudoeste 13 Noroeste 4.2 -- -- 87
2017-09-06 17:00:00 24.2 7 Este 12 Este 0 -- -- 69
2017-09-06 16:00:00 25 5 Este 12 Sudeste 0 -- -- 65
2017-09-06 15:00:00 25.8 2 Norte 6 Este 0 -- -- 58
2017-09-06 14:00:00 25.7 4 Este 10 Norte 0 -- -- 58
2017-09-06 13:00:00 25.6 6 Norte 17 Nordeste 0 -- -- 56
2017-09-06 12:00:00 25.3 8 Norte 17 Norte 0 -- -- 56
2017-09-06 11:00:00 25.8 7 Norte 21 Nordeste 0 -- -- 57
2017-09-06 10:00:00 24.7 10 Norte 26 Norte 0 -- -- 60
2017-09-06 09:00:00 23.7 10 Norte 26 Nordeste 0 -- -- 63
2017-09-06 08:00:00 21.3 4 Oeste 8 Oeste 0 -- -- 83
2017-09-06 07:00:00 21.5 3 Oeste 8 Noroeste 0 -- -- 84
2017-09-06 06:00:00 21.2 3 Sudoeste 10 Oeste 0 -- -- 83
2017-09-06 05:00:00 21.2 6 Oeste 10 Oeste 0 -- -- 83
2017-09-06 04:00:00 21.3 4 Oeste 7 Oeste 0 -- -- 84
2017-09-06 03:00:00 21.2 3 Oeste 8 Oeste 0 -- -- 85
2017-09-06 02:00:00 22 2 Sur 5 Sur 0 -- -- 82
2017-09-06 01:00:00 23.3 0 Calma 7 Sudoeste 0 -- -- 77
2017-09-06 00:00:00 23.7 3 Oeste 8 Sudoeste 0 -- -- 77
2017-09-05 23:00:00 23.6 3 Oeste 6 Oeste 0 -- -- 76
2017-09-05 22:00:00 23.4 3 Oeste 6 Oeste 0 -- -- 75
2017-09-05 21:00:00 24.9 3 Oeste 15 Sur 0 -- -- 72
2017-09-05 20:00:00 25.6 6 Sudoeste 21 Sur 0 -- -- 71
2017-09-05 19:00:00 26.1 12 Sur 26 Sudoeste 0 -- -- 73
2017-09-05 18:00:00 27 14 Sur 29 Sudoeste 0 -- -- 70
2017-09-05 17:00:00 27.8 15 Sur 37 Sur 0 -- -- 67
2017-09-05 16:00:00 28.3 18 Sur 35 Sur 0 -- -- 62
2017-09-05 15:00:00 29.2 14 Sur 32 Sur 0 -- -- 56
2017-09-05 14:00:00 29.4 14 Sur 31 Sur 0 -- -- 53
2017-09-05 13:00:00 28.7 17 Sur 33 Sur 0 -- -- 57
2017-09-05 12:00:00 28.3 13 Sur 27 Sur 0 -- -- 54
2017-09-05 11:00:00 27.4 11 Sur 21 Sur 0 -- -- 54
2017-09-05 10:00:00 24.6 5 Oeste 14 Oeste 0 -- -- 60
2017-09-05 09:00:00 20.3 5 Oeste 15 Oeste 0 -- -- 76
2017-09-05 08:00:00 16.9 6 Sudoeste 13 Sudoeste 0 -- -- 87
2017-09-05 07:00:00 16.5 6 Oeste 12 Sudoeste 0 -- -- 87
2017-09-05 06:00:00 16.9 5 Oeste 15 Sudoeste 0 -- -- 86
2017-09-05 05:00:00 17.3 5 Oeste 12 Oeste 0 -- -- 86
2017-09-05 04:00:00 17.7 5 Oeste 12 Sudoeste 0 -- -- 86
2017-09-05 03:00:00 17.8 4 Oeste 12 Oeste 0 -- -- 85
2017-09-05 02:00:00 18.1 5 Oeste 13 Oeste 0 -- -- 82
2017-09-05 01:00:00 18.6 5 Oeste 12 Sudoeste 0 -- -- 80
2017-09-05 00:00:00 19.2 4 Oeste 10 Oeste 0 -- -- 78
2017-09-04 23:00:00 20.3 4 Oeste 8 Oeste 0 -- -- 75
2017-09-04 22:00:00 21.8 4 Oeste 7 Oeste 0 -- -- 71
2017-09-04 21:00:00 22.7 2 Oeste 5 Noroeste 0 -- -- 69
2017-09-04 20:00:00 24 3 Sur 10 Este 0 -- -- 63
2017-09-04 19:00:00 24.5 5 Este 14 Sudeste 0 -- -- 59
2017-09-04 18:00:00 25.1 9 Este 17 Sudeste 0 -- -- 54
2017-09-04 17:00:00 25.8 9 Este 19 Este 0 -- -- 49
2017-09-04 16:00:00 25.8 9 Este 19 Este 0 -- -- 45
2017-09-04 15:00:00 25.1 10 Este 25 Nordeste 0 -- -- 53
2017-09-04 14:00:00 24.6 15 Este 28 Este 0 -- -- 56
2017-09-04 13:00:00 24.7 15 Este 27 Nordeste 0 -- -- 51
2017-09-04 12:00:00 25.6 9 Este 17 Este 0 -- -- 48
2017-09-04 11:00:00 24 2 Nordeste 14 Este 0 -- -- 47
2017-09-04 10:00:00 21.7 4 Este 14 Nordeste 0 -- -- 58
2017-09-04 09:00:00 18.6 2 Oeste 12 Noroeste 0 -- -- 89
2017-09-04 08:00:00 18.1 5 Oeste 14 Oeste 0 -- -- 89
2017-09-04 07:00:00 18.1 8 Oeste 15 Oeste 0.2 -- -- 90
2017-09-04 06:00:00 18.1 5 Oeste 11 Oeste 0 -- -- 87
2017-09-04 05:00:00 18.3 5 Oeste 9 Oeste 0 -- -- 85
2017-09-04 04:00:00 18.6 4 Oeste 10 Sudoeste 0 -- -- 81
2017-09-04 03:00:00 18.2 5 Sudoeste 12 Sudoeste 0 -- -- 81
2017-09-04 02:00:00 17.9 3 Oeste 11 Oeste 0 -- -- 81
2017-09-04 01:00:00 18.3 5 Oeste 10 Sudoeste 0 -- -- 80
2017-09-04 00:00:00 18.9 4 Oeste 10 Oeste 0 -- -- 77
2017-09-03 23:00:00 20 3 Oeste 9 Oeste 0 -- -- 74
2017-09-03 22:00:00 20.9 4 Oeste 7 Oeste 0 -- -- 70
2017-09-03 21:00:00 21.5 0 Calma 6 Oeste 0 -- -- 69
2017-09-03 20:00:00 22.1 0 Calma 15 Sur 0 -- -- 65
2017-09-03 19:00:00 22.4 8 Sur 15 Sudeste 0 -- -- 62
2017-09-03 18:00:00 22.7 7 Sudeste 18 Sudeste 0 -- -- 59
2017-09-03 17:00:00 23.1 8 Sudeste 18 Este 0 -- -- 56
2017-09-03 16:00:00 23.1 7 Sudeste 17 Nordeste 0 -- -- 54
2017-09-03 15:00:00 22.3 8 Este 22 Este 0 -- -- 56
2017-09-03 14:00:00 22.5 10 Este 22 Este 0 -- -- 53
2017-09-03 13:00:00 23.8 11 Este 22 Nordeste 0 -- -- 49
2017-09-03 12:00:00 23.4 10 Este 18 Nordeste 0 -- -- 45
2017-09-03 11:00:00 23.1 6 Este 15 Este 0 -- -- 42
2017-09-03 10:00:00 21.4 3 Sur 13 Oeste 0 -- -- 50
2017-09-03 09:00:00 18.5 5 Oeste 12 Oeste 0 -- -- 69
2017-09-03 08:00:00 16.8 4 Oeste 12 Oeste 0 -- -- 81
2017-09-03 07:00:00 15.9 6 Oeste 14 Oeste 0 -- -- 85
2017-09-03 06:00:00 16.6 5 Oeste 13 Oeste 0 -- -- 84
2017-09-03 05:00:00 17.3 4 Oeste 8 Oeste 0 -- -- 81
2017-09-03 04:00:00 17.3 5 Oeste 11 Sudoeste 0 -- -- 82
2017-09-03 03:00:00 17 4 Oeste 10 Oeste 0 -- -- 83
2017-09-03 02:00:00 16.9 4 Oeste 9 Oeste 0 -- -- 82
2017-09-03 01:00:00 17.5 4 Oeste 7 Noroeste 0 -- -- 80
2017-09-03 00:00:00 17.8 3 Oeste 6 Oeste 0 -- -- 79
2017-09-02 23:00:00 18.8 3 Sudoeste 5 Oeste 0 -- -- 75
2017-09-02 22:00:00 19.7 0 Calma 6 Oeste 0 -- -- 74
2017-09-02 21:00:00 21.2 3 Oeste 9 Oeste 0 -- -- 65
2017-09-02 20:00:00 22.2 3 Sudoeste 14 Sudoeste 0 -- -- 61
2017-09-02 19:00:00 22.7 9 Sur 22 Sur 0 -- -- 58
2017-09-02 18:00:00 23.5 10 Sur 22 Sudoeste 0 -- -- 54
2017-09-02 17:00:00 22.5 7 Sudeste 23 Sudeste 0 -- -- 59
2017-09-02 16:00:00 23.7 9 Sudeste 22 Sudeste 0 -- -- 54
2017-09-02 15:00:00 23.4 10 Este 23 Sudeste 0 -- -- 58
2017-09-02 14:00:00 24.5 9 Sur 23 Sudeste 0 -- -- 51
2017-09-02 13:00:00 24.2 14 Sur 24 Sur 0 -- -- 41
2017-09-02 12:00:00 23.6 5 Noroeste 15 Noroeste 0 -- -- 49
2017-09-02 11:00:00 23.1 5 Nordeste 22 Noroeste 0 -- -- 42
2017-09-02 10:00:00 20.5 8 Oeste 25 Oeste 0 -- -- 50
2017-09-02 09:00:00 18.7 11 Oeste 24 Oeste 0 -- -- 53
2017-09-02 08:00:00 17.3 9 Oeste 24 Noroeste 0 -- -- 61
2017-09-02 07:00:00 17.8 12 Noroeste 30 Noroeste 0 -- -- 55
2017-09-02 06:00:00 17.9 14 Noroeste 30 Norte 0 -- -- 58
2017-09-02 05:00:00 17.9 12 Norte 30 Norte 0 -- -- 61
2017-09-02 04:00:00 17.9 13 Norte 30 Norte 0.4 -- -- 64
2017-09-02 03:00:00 19.4 12 Norte 28 Norte 0 -- -- 54
2017-09-02 02:00:00 17.9 5 Sudoeste 15 Noroeste 0 -- -- 62
2017-09-02 01:00:00 18.3 4 Sur 11 Nordeste 0 -- -- 60
2017-09-02 00:00:00 17.1 4 Oeste 9 Oeste 0 -- -- 70
2017-09-01 23:00:00 17.4 4 Oeste 8 Noroeste 0 -- -- 72
2017-09-01 22:00:00 19 5 Oeste 9 Oeste 0 -- -- 68
2017-09-01 21:00:00 20.6 0 Calma 5 Oeste 0 -- -- 63
2017-09-01 20:00:00 22.9 0 Calma 7 Sudoeste 0 -- -- 55
2017-09-01 19:00:00 23.6 4 Sudeste 12 Sudeste 0 -- -- 48
2017-09-01 18:00:00 24 5 Sudeste 18 Este 0 -- -- 48
2017-09-01 17:00:00 24.5 7 Sudeste 27 Nordeste 0 -- -- 46
2017-09-01 16:00:00 25 9 Sudeste 22 Sudeste 0 -- -- 46
2017-09-01 15:00:00 24.5 9 Este 30 Sudeste 0 -- -- 45
2017-09-01 14:00:00 24.9 9 Este 26 Norte 0 -- -- 44
2017-09-01 13:00:00 25 8 Norte 25 Noroeste 0 -- -- 44
2017-09-01 12:00:00 23.5 13 Norte 31 Norte 0 -- -- 47
2017-09-01 11:00:00 22 15 Norte 32 Norte 0 -- -- 49
2017-09-01 10:00:00 21.5 15 Norte 35 Norte 0 -- -- 49
2017-09-01 09:00:00 20.3 13 Norte 32 Norte 0 -- -- 55
2017-09-01 08:00:00 19.4 13 Norte 29 Noroeste 0 -- -- 59
2017-09-01 07:00:00 19.4 9 Norte 23 Norte 0 -- -- 58
2017-09-01 06:00:00 17.9 5 Sudoeste 14 Oeste 0 -- -- 69
2017-09-01 05:00:00 18.6 4 Sudoeste 12 Noroeste 0 -- -- 66
2017-09-01 04:00:00 19.8 9 Noroeste 26 Norte 0 -- -- 57
2017-09-01 03:00:00 19.3 13 Norte 32 Norte 0 -- -- 61
2017-09-01 02:00:00 17 9 Noroeste 21 Noroeste 0 -- -- 72
2017-09-01 01:00:00 16.3 6 Oeste 12 Oeste 0 -- -- 89
2017-09-01 00:00:00 17 5 Oeste 14 Oeste 0 -- -- 86
2017-08-31 23:00:00 17.7 8 Oeste 18 Oeste 0 -- -- 82
2017-08-31 22:00:00 18.5 7 Oeste 15 Oeste 0 -- -- 80
2017-08-31 21:00:00 20 10 Noroeste 16 Noroeste 0 -- -- 78
2017-08-31 20:00:00 20.7 3 Sudoeste 18 Noroeste 0 -- -- 70
2017-08-31 19:00:00 21.6 3 Oeste 22 Noroeste 0 -- -- 70
2017-08-31 18:00:00 21.1 4 Noroeste 13 Noroeste 0 -- -- 73
2017-08-31 17:00:00 21.8 4 Nordeste 10 Norte 0 -- -- 77
2017-08-31 16:00:00 20.2 4 Noroeste 8 Oeste 0.4 -- -- 87
2017-08-31 15:00:00 19.5 5 Oeste 10 Oeste 0 -- -- 92
2017-08-31 14:00:00 19.5 3 Norte 11 Sudeste 1.2 -- -- 91
2017-08-31 13:00:00 19.9 4 Norte 16 Sur 2.6 -- -- 90
2017-08-31 12:00:00 21.1 2 Sur 8 Noroeste 1 -- -- 80
2017-08-31 11:00:00 21.3 5 Oeste 15 Oeste 0.2 -- -- 82
2017-08-31 10:00:00 21.5 3 Noroeste 13 Noroeste 0 -- -- 78
2017-08-31 09:00:00 20.7 3 Sudoeste 19 Oeste 0.4 -- -- 84
2017-08-31 08:00:00 21.6 5 Oeste 13 Oeste 0 -- -- 72
2017-08-31 07:00:00 21.6 8 Este 22 Este 0 -- -- 70
2017-08-31 06:00:00 21.7 10 Este 29 Nordeste 0 -- -- 71
2017-08-31 05:00:00 23.1 12 Este 22 Este 0 -- -- 65
2017-08-31 04:00:00 22.1 3 Sudeste 9 Sudoeste 0 -- -- 70
2017-08-31 03:00:00 21.9 3 Sudoeste 9 Sur 0 -- -- 73
2017-08-31 02:00:00 21.9 3 Sur 7 Noroeste 0 -- -- 73
2017-08-31 01:00:00 22.5 3 Nordeste 5 Nordeste 0 -- -- 73
2017-08-31 00:00:00 22.9 3 Sur 11 Sur 0 -- -- 72
2017-08-30 23:00:00 24.4 3 Sudoeste 17 Sudoeste 0 -- -- 68
2017-08-30 22:00:00 24.9 4 Sudoeste 20 Sudoeste 0 -- -- 66
2017-08-30 21:00:00 25.3 9 Sur 24 Sur 0 -- -- 64
2017-08-30 20:00:00 25.7 8 Sudoeste 26 Sudoeste 0 -- -- 62
2017-08-30 19:00:00 26.9 12 Sudoeste 30 Sudoeste 0 -- -- 61
2017-08-30 18:00:00 29 11 Sur 32 Sudoeste 0 -- -- 52
2017-08-30 17:00:00 28.8 15 Sur 36 Sur 0 -- -- 52
2017-08-30 16:00:00 29.8 14 Sur 34 Sur 0 -- -- 49
2017-08-30 15:00:00 30 20 Sur 40 Sur 0 -- -- 45
2017-08-30 14:00:00 29.1 12 Sudoeste 33 Sudoeste 0 -- -- 45
2017-08-30 13:00:00 29 15 Sudoeste 32 Sur 0 -- -- 52
2017-08-30 12:00:00 27.8 18 Sur 31 Sur 0 -- -- 54
2017-08-30 11:00:00 28.4 15 Sur 26 Sur 0 -- -- 51
2017-08-30 10:00:00 25.1 2 Oeste 19 Oeste 0 -- -- 56
2017-08-30 09:00:00 25.1 13 Noroeste 27 Noroeste 0 -- -- 55
2017-08-30 08:00:00 22.6 8 Oeste 17 Noroeste 0 -- -- 61
2017-08-30 07:00:00 21.9 5 Sudoeste 10 Sudoeste 0 -- -- 66
2017-08-30 06:00:00 21 4 Sudoeste 10 Sudoeste 0 -- -- 62
2017-08-30 05:00:00 20.4 4 Oeste 14 Oeste 0 -- -- 64
2017-08-30 04:00:00 21 5 Oeste 11 Oeste 0 -- -- 62
2017-08-30 03:00:00 20.4 5 Sudoeste 14 Oeste 0 -- -- 65
2017-08-30 02:00:00 21.2 5 Oeste 10 Oeste 0 -- -- 65
2017-08-30 01:00:00 22.4 5 Sudoeste 8 Oeste 0 -- -- 63
2017-08-30 00:00:00 23.6 3 Sudoeste 17 Oeste 0 -- -- 60
2017-08-29 23:00:00 24.3 5 Sudoeste 11 Oeste 0 -- -- 61
2017-08-29 22:00:00 25.7 5 Oeste 12 Oeste 0 -- -- 58
2017-08-29 21:00:00 27.4 4 Oeste 8 Oeste 0 -- -- 58
2017-08-29 20:00:00 29.2 4 Sudoeste 22 Sudoeste 0 -- -- 53
2017-08-29 19:00:00 30.8 8 Sudoeste 27 Sudoeste 0 -- -- 48
2017-08-29 18:00:00 30.1 13 Sur 39 Sur 0 -- -- 58
2017-08-29 17:00:00 30.8 17 Sur 39 Sur 0 -- -- 56
2017-08-29 16:00:00 32.4 11 Sudoeste 40 Sur 0 -- -- 49
2017-08-29 15:00:00 30.8 21 Sur 39 Sur 0 -- -- 61
2017-08-29 14:00:00 31.1 13 Sur 37 Sur 0 -- -- 59
2017-08-29 13:00:00 30.1 21 Sur 40 Sur 0 -- -- 64
2017-08-29 12:00:00 29.2 16 Sur 30 Sur 0 -- -- 65
2017-08-29 11:00:00 28.8 15 Sur 28 Sur 0 -- -- 63
2017-08-29 10:00:00 27.3 7 Sur 13 Sudeste 0 -- -- 70
2017-08-29 09:00:00 23.3 3 Noroeste 8 Oeste 0 -- -- 82
2017-08-29 08:00:00 21.1 3 Oeste 8 Oeste 0 -- -- 90
2017-08-29 07:00:00 21.6 4 Oeste 7 Oeste 0 -- -- 90
2017-08-29 06:00:00 21.6 4 Oeste 6 Oeste 0 -- -- 87
2017-08-29 05:00:00 21.4 3 Oeste 11 Oeste 0 -- -- 86
2017-08-29 04:00:00 21.3 5 Oeste 12 Oeste 0 -- -- 85
2017-08-29 03:00:00 22 4 Oeste 10 Noroeste 0 -- -- 80
2017-08-29 02:00:00 22.9 3 Oeste 9 Noroeste 0 -- -- 76
2017-08-29 01:00:00 23.3 4 Oeste 8 Oeste 0 -- -- 74
2017-08-29 00:00:00 23.6 4 Oeste 8 Sudoeste 0 -- -- 73
2017-08-28 23:00:00 23.9 2 Noroeste 8 Noroeste 0 -- -- 73
2017-08-28 22:00:00 23.7 4 Sudoeste 8 Oeste 0 -- -- 74
2017-08-28 21:00:00 24.8 0 Calma 9 Sur 0 -- -- 78
2017-08-28 20:00:00 25.9 3 Nordeste 20 Sur 0 -- -- 76
2017-08-28 19:00:00 26 5 Sudeste 21 Sur 0 -- -- 76
2017-08-28 18:00:00 26.3 6 Sur 17 Sur 0 -- -- 75
2017-08-28 17:00:00 26.7 9 Este 19 Este 0 -- -- 74
2017-08-28 16:00:00 26.4 12 Este 23 Este 0 -- -- 75
2017-08-28 15:00:00 26.9 12 Este 25 Este 0 -- -- 72
2017-08-28 14:00:00 27.4 11 Este 19 Nordeste 0 -- -- 73
2017-08-28 13:00:00 27.5 8 Este 18 Este 0 -- -- 73
2017-08-28 12:00:00 27.3 9 Este 20 Este 0 -- -- 74
2017-08-28 11:00:00 27.9 10 Sudeste 16 Sudeste 0 -- -- 71
2017-08-28 10:00:00 26.2 4 Oeste 10 Oeste 0 -- -- 73
2017-08-28 09:00:00 23.4 4 Oeste 9 Oeste 0 -- -- 85
2017-08-28 08:00:00 20.8 4 Oeste 10 Oeste 0 -- -- 92
2017-08-28 07:00:00 20.4 3 Oeste 9 Oeste 0 -- -- 91
2017-08-28 06:00:00 20.8 5 Oeste 8 Oeste 0 -- -- 91
2017-08-28 05:00:00 21.3 3 Oeste 7 Oeste 0 -- -- 89
2017-08-28 04:00:00 21.8 2 Sudoeste 7 Oeste 0 -- -- 89
2017-08-28 03:00:00 22.4 0 Calma 7 Oeste 0 -- -- 88
2017-08-28 02:00:00 23.1 3 Oeste 7 Oeste 0 -- -- 88
2017-08-28 01:00:00 23.9 3 Sudeste 10 Oeste 0 -- -- 85
2017-08-28 00:00:00 24.3 4 Sudoeste 9 Sur 0 -- -- 85
2017-08-27 23:00:00 24.7 3 Sudeste 9 Este 0 -- -- 84
2017-08-27 22:00:00 24.9 6 Sudeste 24 Sur 0 -- -- 82
2017-08-27 21:00:00 24.9 3 Norte 10 Sur 0 -- -- 81
2017-08-27 20:00:00 25.5 7 Sur 17 Sur 0 -- -- 78
2017-08-27 19:00:00 25.5 7 Sur 17 Sudeste 0 -- -- 79
2017-08-27 18:00:00 25.9 8 Este 18 Este 0 -- -- 77
2017-08-27 17:00:00 26.4 8 Este 20 Este 0 -- -- 74
2017-08-27 16:00:00 26.5 12 Este 23 Nordeste 0 -- -- 72
2017-08-27 15:00:00 26.5 13 Este 25 Este 0 -- -- 72
2017-08-27 14:00:00 26.7 14 Este 24 Nordeste 0 -- -- 71
2017-08-27 13:00:00 26.3 10 Este 27 Este 0 -- -- 74
2017-08-27 12:00:00 26.3 12 Este 24 Este 0 -- -- 76
2017-08-27 11:00:00 26 10 Este 24 Este 0 -- -- 78
2017-08-27 10:00:00 26.4 8 Este 17 Este 0 -- -- 76
2017-08-27 09:00:00 23.2 3 Oeste 8 Oeste 0 -- -- 87
2017-08-27 08:00:00 21.2 4 Oeste 9 Oeste 0 -- -- 93
2017-08-27 07:00:00 20.9 4 Sudoeste 9 Oeste 0 -- -- 92
2017-08-27 06:00:00 21 5 Oeste 9 Oeste 0 -- -- 92
2017-08-27 05:00:00 20.8 4 Oeste 9 Oeste 0 -- -- 93
2017-08-27 04:00:00 20.7 4 Oeste 9 Oeste 0 -- -- 91
2017-08-27 03:00:00 21 5 Oeste 9 Oeste 0 -- -- 90
2017-08-27 02:00:00 21.6 3 Sudoeste 6 Oeste 0 -- -- 88
2017-08-27 01:00:00 22.5 0 Calma 4 Noroeste 0 -- -- 88
2017-08-27 00:00:00 22.9 3 Oeste 11 Oeste 0 -- -- 86
2017-08-26 23:00:00 23.6 3 Oeste 6 Oeste 0 -- -- 85
2017-08-26 22:00:00 24.5 0 Calma 4 Oeste 0 -- -- 83
2017-08-26 21:00:00 25.5 0 Calma 9 Sudeste 0 -- -- 80
2017-08-26 20:00:00 26.3 4 Sudeste 11 Sudoeste 0 -- -- 78
2017-08-26 19:00:00 27 6 Sudeste 17 Este 0 -- -- 75
2017-08-26 18:00:00 27.8 10 Sudeste 21 Sur 0 -- -- 70
2017-08-26 17:00:00 28.2 13 Sur 25 Sudeste 0 -- -- 67
2017-08-26 16:00:00 28.6 10 Sudeste 23 Este 0 -- -- 65
2017-08-26 15:00:00 28.3 9 Este 23 Sudeste 0 -- -- 65
2017-08-26 14:00:00 28.6 12 Sudeste 24 Este 0 -- -- 65
2017-08-26 13:00:00 28.1 13 Sudeste 22 Sudeste 0 -- -- 69
2017-08-26 12:00:00 28.2 12 Sudeste 20 Sur 0 -- -- 68
2017-08-26 11:00:00 27.9 9 Este 17 Sudeste 0 -- -- 71
2017-08-26 10:00:00 25.8 0 Calma 12 Oeste 0 -- -- 78
2017-08-26 09:00:00 23.9 4 Oeste 14 Oeste 0 -- -- 79
2017-08-26 08:00:00 22 3 Oeste 11 Oeste 0 -- -- 89
2017-08-26 07:00:00 22.1 3 Oeste 7 Oeste 0 -- -- 90
2017-08-26 06:00:00 22.5 2 Noroeste 9 Oeste 0 -- -- 90
2017-08-26 05:00:00 22.4 4 Oeste 6 Oeste 0 -- -- 89
2017-08-26 04:00:00 23.1 0 Calma 4 Noroeste 0 -- -- 89
2017-08-26 03:00:00 24.1 0 Calma 6 Este 0 -- -- 84
2017-08-26 02:00:00 24.6 4 Oeste 10 Sudoeste 0 -- -- 85
2017-08-26 01:00:00 24.2 4 Sur 10 Sudoeste 0 -- -- 87
2017-08-26 00:00:00 24.1 3 Nordeste 5 Nordeste 0 -- -- 85
2017-08-25 23:00:00 24.9 0 Calma 8 Oeste 0 -- -- 82
2017-08-25 22:00:00 25 4 Sudeste 13 Sudeste 0 -- -- 82
2017-08-25 21:00:00 25.4 8 Sudeste 19 Sudeste 0 -- -- 79
2017-08-25 20:00:00 26.2 6 Sur 19 Sudeste 0 -- -- 74
2017-08-25 19:00:00 26.8 11 Sur 20 Sudeste 0 -- -- 75
2017-08-25 18:00:00 27.2 10 Sur 21 Sudeste 0 -- -- 73
2017-08-25 17:00:00 27.4 12 Sudeste 24 Sudeste 0 -- -- 73
2017-08-25 16:00:00 28.7 14 Sur 25 Sur 0 -- -- 67
2017-08-25 15:00:00 29.3 15 Sur 25 Sur 0 -- -- 65
2017-08-25 14:00:00 29.6 12 Sudoeste 24 Sudoeste 0 -- -- 51
2017-08-25 13:00:00 28.8 11 Sur 25 Sudoeste 0 -- -- 70
2017-08-25 12:00:00 28 13 Sudoeste 27 Sur 0 -- -- 72
2017-08-25 11:00:00 27.8 10 Sur 26 Sur 0 -- -- 74
2017-08-25 10:00:00 27.1 12 Sur 24 Sudoeste 0 -- -- 74
2017-08-25 09:00:00 24.9 7 Sur 16 Oeste 0 -- -- 86
2017-08-25 08:00:00 19.7 3 Oeste 6 Noroeste 0 -- -- 90
2017-08-25 07:00:00 19.4 3 Sudoeste 8 Oeste 0 -- -- 90
2017-08-25 06:00:00 20.1 3 Oeste 7 Oeste 0 -- -- 88
2017-08-25 05:00:00 21.6 0 Calma 6 Sur 0 -- -- 88
2017-08-25 04:00:00 23.3 3 Sur 13 Sur 0 -- -- 86
2017-08-25 03:00:00 22.9 5 Sudoeste 11 Sudoeste 0 -- -- 90
2017-08-25 02:00:00 23.6 0 Calma 10 Sur 0 -- -- 85
2017-08-25 01:00:00 24.5 3 Sudoeste 18 Sudoeste 0 -- -- 84
2017-08-25 00:00:00 24.8 5 Sudoeste 21 Sur 0 -- -- 86
2017-08-24 23:00:00 25 9 Sur 22 Sur 0 -- -- 82
2017-08-24 22:00:00 25.2 6 Sur 21 Sur 0 -- -- 80
2017-08-24 21:00:00 25.5 9 Sur 18 Sur 0 -- -- 81
2017-08-24 20:00:00 26.4 8 Sur 23 Sur 0 -- -- 78
2017-08-24 19:00:00 27.3 8 Sudoeste 23 Sur 0 -- -- 75
2017-08-24 18:00:00 28.1 10 Sur 22 Sur 0 -- -- 72
2017-08-24 17:00:00 28.8 8 Sur 27 Sudeste 0 -- -- 67
2017-08-24 16:00:00 29.3 8 Sur 27 Sur 0 -- -- 64
2017-08-24 15:00:00 28.7 16 Sudeste 27 Sudeste 0 -- -- 64
2017-08-24 14:00:00 29.8 9 Sur 28 Sudoeste 0 -- -- 53
2017-08-24 13:00:00 28.2 14 Sur 29 Sudoeste 0 -- -- 65
2017-08-24 12:00:00 27.3 7 Sur 16 Sur 0 -- -- 65
2017-08-24 11:00:00 26.2 6 Oeste 16 Oeste 0 -- -- 71
2017-08-24 10:00:00 25.2 6 Oeste 21 Sur 0 -- -- 78
2017-08-24 09:00:00 22.3 3 Sudeste 9 Sudoeste 0 -- -- 90
2017-08-24 08:00:00 19.7 3 Sur 11 Oeste 0 -- -- 88
2017-08-24 07:00:00 19.2 5 Oeste 11 Sudoeste 0 -- -- 89
2017-08-24 06:00:00 19.6 3 Oeste 10 Oeste 0 -- -- 88
2017-08-24 05:00:00 20.4 6 Oeste 21 Oeste 0 -- -- 87
2017-08-24 04:00:00 22.1 3 Oeste 10 Sur 0.2 -- -- 86
2017-08-24 03:00:00 22.8 3 Sudoeste 9 Oeste 0 -- -- 78
2017-08-24 02:00:00 24.6 3 Oeste 23 Sudoeste 0 -- -- 71
2017-08-24 01:00:00 24.6 2 Noroeste 22 Sur 0 -- -- 73
2017-08-24 00:00:00 25.1 6 Sudoeste 26 Oeste 0 -- -- 74
2017-08-23 23:00:00 25.2 10 Sudoeste 20 Noroeste 0 -- -- 66
2017-08-23 22:00:00 25.6 5 Oeste 15 Oeste 0 -- -- 67
2017-08-23 21:00:00 25.7 6 Noroeste 19 Sudoeste 0 -- -- 71
2017-08-23 20:00:00 26.2 10 Sudoeste 32 Sur 0 -- -- 72
2017-08-23 19:00:00 27.2 19 Sur 38 Sur 0 -- -- 70
2017-08-23 18:00:00 27.7 16 Sur 32 Sudoeste 0 -- -- 68
2017-08-23 17:00:00 28.1 18 Sur 37 Sur 0 -- -- 68
2017-08-23 16:00:00 28.1 24 Sur 37 Sur 0 -- -- 67
2017-08-23 15:00:00 28.2 12 Sur 31 Sur 0 -- -- 67
2017-08-23 14:00:00 27.6 14 Sur 25 Sudeste 0 -- -- 67
2017-08-23 13:00:00 26.7 8 Sudeste 19 Sudeste 0 -- -- 67
2017-08-23 12:00:00 26.8 8 Nordeste 17 Nordeste 0 -- -- 67
2017-08-23 11:00:00 26 9 Nordeste 18 Este 0 -- -- 71
2017-08-23 10:00:00 25.3 8 Nordeste 18 Nordeste 0 -- -- 75
2017-08-23 09:00:00 22 4 Oeste 12 Oeste 0 -- -- 79
2017-08-23 08:00:00 19.5 4 Oeste 9 Oeste 0 -- -- 87
2017-08-23 07:00:00 19 3 Oeste 6 Oeste 0 -- -- 88
2017-08-23 06:00:00 19.5 5 Noroeste 8 Noroeste 0 -- -- 89
2017-08-23 05:00:00 19.8 3 Oeste 9 Oeste 0 -- -- 88
2017-08-23 04:00:00 20.2 4 Oeste 8 Oeste 0 -- -- 88
2017-08-23 03:00:00 20.5 3 Oeste 8 Oeste 0 -- -- 86
2017-08-23 02:00:00 21.5 4 Oeste 7 Oeste 0 -- -- 82
2017-08-23 01:00:00 22.8 4 Oeste 12 Sudoeste 0 -- -- 77
2017-08-23 00:00:00 24.6 6 Sudoeste 14 Sudoeste 0 -- -- 77
2017-08-22 23:00:00 24.9 8 Sudoeste 15 Sudoeste 0 -- -- 75
2017-08-22 22:00:00 25 4 Sudoeste 18 Sudoeste 0 -- -- 74
2017-08-22 21:00:00 25.4 6 Sudoeste 22 Sudoeste 0 -- -- 74
2017-08-22 20:00:00 26.1 9 Sudoeste 27 Sur 0 -- -- 72
2017-08-22 19:00:00 26.8 14 Sur 28 Sur 0 -- -- 70
2017-08-22 18:00:00 27.7 14 Sur 32 Sudoeste 0 -- -- 66
2017-08-22 17:00:00 28.2 9 Sudoeste 33 Sudoeste 0 -- -- 67
2017-08-22 16:00:00 27.8 13 Sur 35 Sudoeste 0 -- -- 68
2017-08-22 15:00:00 28.2 17 Sur 32 Sur 0 -- -- 66
2017-08-22 14:00:00 28.4 16 Sur 35 Sur 0 -- -- 66
2017-08-22 13:00:00 28.3 19 Sur 33 Sur 0 -- -- 65
2017-08-22 12:00:00 27.7 12 Sur 25 Sudeste 0 -- -- 68
2017-08-22 11:00:00 26.8 10 Sudeste 21 Sudeste 0 -- -- 69
2017-08-22 10:00:00 25.5 3 Nordeste 10 Oeste 0 -- -- 64
2017-08-22 09:00:00 21.4 4 Oeste 10 Oeste 0 -- -- 72
2017-08-22 08:00:00 17.5 5 Oeste 13 Oeste 0 -- -- 83
2017-08-22 07:00:00 17.1 5 Oeste 13 Oeste 0 -- -- 87
2017-08-22 06:00:00 17.5 5 Oeste 11 Oeste 0 -- -- 85
2017-08-22 05:00:00 17.7 5 Oeste 12 Oeste 0 -- -- 82
2017-08-22 04:00:00 17.1 5 Oeste 13 Oeste 0 -- -- 77
2017-08-22 03:00:00 17.3 5 Oeste 11 Sudoeste 0 -- -- 71
2017-08-22 02:00:00 18.2 4 Oeste 10 Sudoeste 0 -- -- 66
2017-08-22 01:00:00 18.4 4 Oeste 13 Oeste 0 -- -- 62
2017-08-22 00:00:00 19.2 5 Oeste 15 Sudoeste 0 -- -- 59